createdAt,value
2018-06-05T00:03:24.819Z,27.40
2018-06-05T00:07:28.206Z,27.30
2018-06-05T00:11:31.564Z,30.13
2018-06-05T00:15:34.918Z,28.50
2018-06-05T00:19:38.274Z,31.07
2018-06-05T00:23:41.616Z,31.97
2018-06-05T00:27:44.955Z,32.20
2018-06-05T00:31:48.302Z,30.43
2018-06-05T00:35:51.665Z,29.90
2018-06-05T00:39:55.034Z,29.40
2018-06-05T00:43:58.375Z,25.47
2018-06-05T00:48:01.766Z,25.80
2018-06-05T00:52:08.996Z,25.20
2018-06-05T00:56:12.375Z,24.50
2018-06-05T01:00:15.723Z,24.60
2018-06-05T01:04:19.046Z,25.67
2018-06-05T01:08:23.019Z,27.27
2018-06-05T01:12:26.376Z,25.90
2018-06-05T01:16:29.718Z,27.47
2018-06-05T01:20:33.171Z,26.07
2018-06-05T01:24:36.497Z,25.73
2018-06-05T01:28:39.850Z,26.87
2018-06-05T01:32:43.189Z,25.07
2018-06-05T01:36:46.514Z,24.67
2018-06-05T01:40:49.870Z,23.80
2018-06-05T01:44:53.235Z,23.37
2018-06-05T01:48:56.748Z,23.03
2018-06-05T01:53:00.102Z,25.43
2018-06-05T01:57:03.507Z,21.87
2018-06-05T02:01:06.862Z,22.20
2018-06-05T02:05:10.219Z,23.47
2018-06-05T02:09:14.425Z,23.30
2018-06-05T02:13:17.812Z,22.23
2018-06-05T02:17:21.160Z,24.60
2018-06-05T02:21:24.542Z,24.90
2018-06-05T02:25:27.891Z,19.20
2018-06-05T02:29:31.210Z,18.60
2018-06-05T02:33:34.539Z,21.40
2018-06-05T02:37:37.911Z,22.50
2018-06-05T02:41:41.386Z,19.23
2018-06-05T02:45:44.762Z,23.63
2018-06-05T02:49:48.107Z,24.90
2018-06-05T02:53:51.467Z,21.73
2018-06-05T02:57:54.821Z,24.97
2018-06-05T03:01:58.319Z,25.27
2018-06-05T03:06:01.679Z,25.87
2018-06-05T03:10:05.063Z,27.23
2018-06-05T03:14:08.430Z,27.03
2018-06-05T03:18:11.799Z,25.70
2018-06-05T03:22:15.160Z,25.87
2018-06-05T03:26:18.557Z,27.43
2018-06-05T03:30:21.886Z,26.83
2018-06-05T03:34:25.273Z,26.47
2018-06-05T03:38:28.655Z,23.27
2018-06-05T03:42:31.747Z,25.20
2018-06-05T03:46:35.074Z,23.57
2018-06-05T03:50:38.419Z,25.27
2018-06-05T03:54:42.385Z,21.13
2018-06-05T03:58:45.764Z,24.93
2018-06-05T04:02:49.115Z,23.47
2018-06-05T04:06:52.490Z,24.27
2018-06-05T04:10:55.863Z,24.97
2018-06-05T04:14:59.240Z,22.37
2018-06-05T04:19:02.593Z,23.80
2018-06-05T04:23:05.968Z,22.57
2018-06-05T04:27:09.354Z,23.67
2018-06-05T04:31:12.695Z,28.67
2018-06-05T04:35:16.055Z,23.73
2018-06-05T04:39:19.402Z,22.63
2018-06-05T04:43:22.748Z,24.23
2018-06-05T04:47:26.098Z,27.50
2018-06-05T04:51:29.433Z,25.93
2018-06-05T04:55:32.786Z,23.80
2018-06-05T04:59:36.130Z,24.10
2018-06-05T05:03:39.519Z,25.60
2018-06-05T05:07:42.904Z,29.30
2018-06-05T05:11:46.347Z,28.13
2018-06-05T05:15:49.846Z,26.07
2018-06-05T05:19:53.210Z,26.57
2018-06-05T05:23:56.601Z,25.07
2018-06-05T05:27:59.947Z,25.47
2018-06-05T05:32:03.308Z,23.63
2018-06-05T05:36:06.430Z,25.90
2018-06-05T05:40:09.805Z,24.60
2018-06-05T05:44:13.142Z,23.53
2018-06-05T05:48:16.519Z,26.60
2018-06-05T05:52:19.943Z,23.90
2018-06-05T05:56:23.338Z,24.67
2018-06-05T06:00:26.675Z,25.03
2018-06-05T06:04:30.032Z,22.93
2018-06-05T06:08:33.375Z,21.73
2018-06-05T06:12:36.744Z,21.63
2018-06-05T06:16:40.071Z,26.53
2018-06-05T06:20:43.418Z,21.90
2018-06-05T06:24:46.777Z,22.13
2018-06-05T06:28:50.093Z,24.10
2018-06-05T06:32:53.422Z,22.83
2018-06-05T06:36:56.742Z,20.13
2018-06-05T06:41:00.110Z,22.50
2018-06-05T06:45:03.471Z,19.60
2018-06-05T06:49:06.816Z,18.03
2018-06-05T06:53:10.160Z,22.17
2018-06-05T06:57:13.472Z,22.10
2018-06-05T07:01:16.598Z,20.33
2018-06-05T07:05:19.936Z,22.50
2018-06-05T07:09:23.283Z,19.40
2018-06-05T07:13:26.655Z,20.27
2018-06-05T07:17:29.979Z,20.20
2018-06-05T07:21:33.315Z,24.13
2018-06-05T07:25:36.676Z,23.60
2018-06-05T07:29:40.028Z,21.50
2018-06-05T07:33:43.362Z,21.30
2018-06-05T07:37:46.663Z,22.17
2018-06-05T07:41:50.036Z,21.23
2018-06-05T07:45:53.399Z,24.13
2018-06-05T07:49:56.788Z,24.50
2018-06-05T07:54:00.120Z,26.67
2018-06-05T07:58:03.447Z,27.43
2018-06-05T08:02:06.831Z,26.23
2018-06-05T08:06:10.160Z,23.20
2018-06-05T08:10:13.511Z,27.23
2018-06-05T08:14:16.857Z,23.87
2018-06-05T08:18:20.201Z,23.17
2018-06-05T08:22:24.077Z,26.67
2018-06-05T08:26:39.116Z,25.67
2018-06-05T08:30:42.455Z,24.57
2018-06-05T08:34:45.799Z,27.30
2018-06-05T08:38:49.150Z,22.60
2018-06-05T08:42:52.478Z,21.23
2018-06-05T08:46:55.815Z,24.50
2018-06-05T08:50:59.237Z,21.90
2018-06-05T08:55:02.566Z,20.17
2018-06-05T08:59:05.943Z,19.30
2018-06-05T09:03:09.281Z,19.87
2018-06-05T09:07:12.616Z,15.17
2018-06-05T09:11:16.040Z,14.97
2018-06-05T09:15:19.415Z,16.13
2018-06-05T09:19:22.742Z,15.37
2018-06-05T09:23:26.101Z,17.10
2018-06-05T09:27:29.440Z,15.43
2018-06-05T09:31:32.904Z,15.97
2018-06-05T09:35:36.230Z,14.20
2018-06-05T09:39:39.574Z,15.27
2018-06-05T09:43:42.900Z,15.37
2018-06-05T09:47:46.232Z,15.10
2018-06-05T09:51:49.582Z,14.77
2018-06-05T09:55:52.948Z,15.20
2018-06-05T09:59:56.294Z,15.00
2018-06-05T10:03:59.695Z,14.97
2018-06-05T10:08:03.010Z,18.00
2018-06-05T10:12:06.372Z,15.67
2018-06-05T10:16:09.724Z,17.07
2018-06-05T10:20:13.147Z,16.03
2018-06-05T10:24:16.470Z,17.47
2018-06-05T10:28:19.851Z,17.53
2018-06-05T10:32:23.259Z,17.83
2018-06-05T10:36:26.611Z,16.60
2018-06-05T10:40:29.951Z,17.17
2018-06-05T10:44:33.027Z,17.17
2018-06-05T10:48:36.367Z,16.73
2018-06-05T10:52:39.696Z,16.93
2018-06-05T10:56:43.023Z,20.20
2018-06-05T11:00:46.381Z,16.53
2018-06-05T11:04:49.427Z,18.30
2018-06-05T11:08:52.762Z,15.57
2018-06-05T11:12:56.116Z,15.83
2018-06-05T11:16:59.479Z,15.63
2018-06-05T11:21:02.810Z,15.93
2018-06-05T11:25:06.161Z,16.23
2018-06-05T11:29:09.498Z,19.80
2018-06-05T11:33:12.842Z,16.73
2018-06-05T11:37:16.191Z,16.00
2018-06-05T11:41:19.539Z,16.83
2018-06-05T11:45:22.876Z,16.07
2018-06-05T11:49:26.278Z,17.23
2018-06-05T11:53:29.635Z,19.03
2018-06-05T11:57:32.992Z,17.37
2018-06-05T12:01:36.340Z,16.40
2018-06-05T12:05:39.700Z,18.23
2018-06-05T12:09:43.060Z,19.30
2018-06-05T12:13:46.432Z,15.97
2018-06-05T12:17:49.836Z,15.40
2018-06-05T12:21:53.151Z,13.67
2018-06-05T12:25:56.483Z,18.77
2018-06-05T12:29:59.826Z,18.57
2018-06-05T12:34:03.183Z,19.37
2018-06-05T12:38:06.531Z,15.33
2018-06-05T12:42:09.871Z,14.67
2018-06-05T12:46:13.214Z,15.47
2018-06-05T12:50:16.559Z,15.60
2018-06-05T12:54:19.910Z,16.00
2018-06-05T12:58:23.252Z,16.03
2018-06-05T13:02:26.606Z,15.33
2018-06-05T13:06:29.971Z,16.83
2018-06-05T13:10:33.328Z,15.33
2018-06-05T13:14:36.700Z,16.93
2018-06-05T13:18:40.044Z,15.97
2018-06-05T13:22:43.518Z,15.23
2018-06-05T13:26:46.752Z,15.40
2018-06-05T13:30:50.120Z,15.50
2018-06-05T13:34:53.486Z,17.87
2018-06-05T13:38:56.862Z,15.00
2018-06-05T13:43:00.217Z,15.93
2018-06-05T13:47:03.539Z,18.03
2018-06-05T13:51:06.890Z,14.77
2018-06-05T13:55:10.248Z,16.90
2018-06-05T13:59:13.599Z,16.17
2018-06-05T14:03:16.972Z,15.90
2018-06-05T14:07:20.288Z,16.73
2018-06-05T14:11:23.626Z,16.60
2018-06-05T14:15:26.987Z,17.63
2018-06-05T14:19:50.457Z,20.00
2018-06-05T14:23:53.803Z,17.87
2018-06-05T14:27:57.134Z,19.37
2018-06-05T14:32:00.459Z,15.93
2018-06-05T14:36:03.804Z,18.97
2018-06-05T14:40:07.151Z,18.83
2018-06-05T14:44:10.523Z,16.73
2018-06-05T14:48:13.890Z,16.93
2018-06-05T14:52:17.213Z,22.07
2018-06-05T14:56:20.570Z,22.17
2018-06-05T15:00:23.923Z,17.73
2018-06-05T15:04:27.314Z,18.77
2018-06-05T15:08:30.663Z,20.83
2018-06-05T15:12:33.999Z,19.20
2018-06-05T15:16:37.322Z,18.70
2018-06-05T15:20:40.673Z,18.23
2018-06-05T15:24:44.014Z,22.43
2018-06-05T15:28:47.351Z,15.57
2018-06-05T15:32:50.681Z,16.37
2018-06-05T15:36:54.035Z,18.43
2018-06-05T15:40:57.375Z,17.30
2018-06-05T15:45:00.696Z,19.30
2018-06-05T15:49:04.027Z,15.83
2018-06-05T15:53:07.355Z,18.73
2018-06-05T15:57:10.687Z,15.57
2018-06-05T16:01:14.091Z,15.07
2018-06-05T16:05:18.073Z,16.70
2018-06-05T16:09:21.516Z,15.77
2018-06-05T16:13:24.863Z,17.27
2018-06-05T16:17:28.228Z,17.93
2018-06-05T16:21:31.660Z,18.53
2018-06-05T16:25:34.995Z,18.80
2018-06-05T16:29:38.359Z,19.57
2018-06-05T16:33:41.685Z,17.83
2018-06-05T16:37:45.038Z,16.80
2018-06-05T16:41:48.362Z,17.50
2018-06-05T16:45:51.720Z,18.23
2018-06-05T16:49:55.063Z,17.10
2018-06-05T16:53:58.397Z,14.77
2018-06-05T16:58:02.816Z,14.50
2018-06-05T17:02:06.255Z,15.57
2018-06-05T17:06:09.592Z,18.30
2018-06-05T17:10:12.958Z,17.63
2018-06-05T17:14:16.310Z,16.27
2018-06-05T17:18:19.682Z,17.57
2018-06-05T17:22:23.159Z,19.17
2018-06-05T17:26:26.615Z,15.90
2018-06-05T17:30:29.958Z,15.67
2018-06-05T17:34:33.274Z,14.93
2018-06-05T17:38:36.634Z,18.13
2018-06-05T17:42:40.002Z,14.90
2018-06-05T17:46:43.358Z,17.23
2018-06-05T17:50:46.688Z,14.63
2018-06-05T17:54:50.055Z,21.33
2018-06-05T17:58:53.423Z,22.30
2018-06-05T18:02:56.790Z,20.27
2018-06-05T18:07:00.147Z,13.40
2018-06-05T18:11:03.541Z,14.73
2018-06-05T18:15:06.924Z,19.13
2018-06-05T18:19:10.258Z,18.53
2018-06-05T18:23:13.614Z,17.17
2018-06-05T18:27:16.689Z,16.03
2018-06-05T18:31:20.071Z,14.23
2018-06-05T18:35:23.423Z,15.50
2018-06-05T18:39:26.768Z,15.03
2018-06-05T18:43:30.128Z,15.60
2018-06-05T18:47:33.491Z,15.77
2018-06-05T18:51:36.823Z,17.07
2018-06-05T18:55:40.197Z,15.20
2018-06-05T18:59:43.906Z,16.73
2018-06-05T19:03:47.260Z,15.80
2018-06-05T19:07:50.639Z,14.60
2018-06-05T19:11:54.046Z,15.37
2018-06-05T19:15:57.419Z,19.50
2018-06-05T19:20:00.788Z,17.20
2018-06-05T19:24:05.407Z,16.67
2018-06-05T19:28:09.132Z,16.27
2018-06-05T19:32:12.467Z,22.50
2018-06-05T19:36:15.958Z,20.20
2018-06-05T19:40:19.325Z,19.67
2018-06-05T19:44:24.600Z,22.07
2018-06-05T19:48:28.081Z,22.40
2018-06-05T19:52:32.470Z,17.77
2018-06-05T19:56:35.921Z,18.17
2018-06-05T20:00:39.238Z,18.77
2018-06-05T20:04:42.567Z,23.93
2018-06-05T20:08:45.919Z,18.13
2018-06-05T20:12:49.307Z,22.50
2018-06-05T20:16:52.663Z,34.80
2018-06-05T20:20:55.999Z,25.80
2018-06-05T20:24:59.374Z,22.63
2018-06-05T20:29:02.716Z,20.77
2018-06-05T20:33:06.173Z,19.50
2018-06-05T20:37:09.543Z,19.93
2018-06-05T20:41:12.970Z,19.53
2018-06-05T20:45:16.327Z,20.13
2018-06-05T20:49:19.712Z,19.27
2018-06-05T20:53:23.067Z,22.10
2018-06-05T20:57:26.423Z,19.63
2018-06-05T21:01:29.757Z,19.83
2018-06-05T21:05:33.107Z,18.50
2018-06-05T21:09:36.199Z,18.77
2018-06-05T21:13:39.589Z,23.60
2018-06-05T21:17:42.991Z,20.10
2018-06-05T21:21:46.375Z,22.13
2018-06-05T21:25:50.075Z,18.30
2018-06-05T21:29:53.513Z,19.50
2018-06-05T21:33:56.879Z,21.37
2018-06-05T21:38:00.283Z,21.87
2018-06-05T21:42:03.681Z,23.77
2018-06-05T21:46:07.099Z,19.50
2018-06-05T21:50:10.506Z,20.73
2018-06-05T21:54:13.913Z,21.70
2018-06-05T21:58:17.477Z,19.50
2018-06-05T22:02:20.566Z,22.63
2018-06-05T22:06:23.948Z,21.40
2018-06-05T22:10:27.370Z,23.63
2018-06-05T22:14:30.816Z,19.43
2018-06-05T22:18:34.430Z,27.20
2018-06-05T22:22:37.839Z,20.80
2018-06-05T22:26:41.268Z,17.37
2018-06-05T22:30:44.934Z,17.70
2018-06-05T22:34:48.360Z,22.57
2018-06-05T22:38:51.732Z,20.83
2018-06-05T22:42:55.103Z,24.20
2018-06-05T22:46:58.461Z,18.30
2018-06-05T22:51:01.863Z,23.10
2018-06-05T22:55:05.715Z,19.37
2018-06-05T22:59:09.098Z,19.13
2018-06-05T23:03:12.523Z,15.50
2018-06-05T23:07:15.877Z,21.57
2018-06-05T23:11:19.287Z,15.17
2018-06-05T23:15:22.704Z,15.57
2018-06-05T23:19:26.063Z,15.97
2018-06-05T23:23:29.447Z,15.73
2018-06-05T23:27:32.795Z,16.23
2018-06-05T23:31:36.179Z,17.73
2018-06-05T23:35:39.568Z,15.23
2018-06-05T23:39:43.016Z,14.97
2018-06-05T23:43:46.394Z,18.43
2018-06-05T23:47:49.768Z,17.57
2018-06-05T23:51:57.407Z,18.10
2018-06-05T23:56:00.767Z,15.07
